createdAt,value
2022-11-03T00:01:45.348Z,8.20
2022-11-03T00:04:13.739Z,8.20
2022-11-03T00:06:41.296Z,8.20
2022-11-03T00:09:09.242Z,8.20
2022-11-03T00:11:37.226Z,8.20
2022-11-03T00:14:03.894Z,8.30
2022-11-03T00:16:32.792Z,8.30
2022-11-03T00:18:59.311Z,8.20
2022-11-03T00:21:28.130Z,8.20
2022-11-03T00:23:54.670Z,8.30
2022-11-03T00:26:27.636Z,8.30
2022-11-03T00:28:55.401Z,8.30
2022-11-03T00:31:21.893Z,8.30
2022-11-03T00:33:50.901Z,8.40
2022-11-03T00:36:27.409Z,8.40
2022-11-03T00:38:53.993Z,8.40
2022-11-03T00:41:21.030Z,8.40
2022-11-03T00:43:48.055Z,8.30
2022-11-03T00:46:14.659Z,8.20
2022-11-03T00:48:43.537Z,8.20
2022-11-03T00:51:14.019Z,8.20
2022-11-03T00:53:41.874Z,8.20
2022-11-03T00:56:10.572Z,8.20
2022-11-03T00:58:37.258Z,8.20
2022-11-03T01:01:08.556Z,8.20
2022-11-03T01:03:36.153Z,8.20
2022-11-03T01:06:23.302Z,8.20
2022-11-03T01:08:49.829Z,8.20
2022-11-03T01:11:37.312Z,8.10
2022-11-03T01:14:04.330Z,8.00
2022-11-03T01:16:33.832Z,8.00
2022-11-03T01:19:00.562Z,8.10
2022-11-03T01:21:29.455Z,8.00
2022-11-03T01:23:56.331Z,8.00
2022-11-03T01:26:25.412Z,8.00
2022-11-03T01:28:51.940Z,8.00
2022-11-03T01:31:22.195Z,8.00
2022-11-03T01:33:53.480Z,8.00
2022-11-03T01:36:20.166Z,8.10
2022-11-03T01:38:47.073Z,8.10
2022-11-03T01:41:15.537Z,8.00
2022-11-03T01:43:44.600Z,8.00
2022-11-03T01:46:11.118Z,8.00
2022-11-03T01:48:40.296Z,8.00
2022-11-03T01:51:08.286Z,7.90
2022-11-03T01:53:35.506Z,7.90
2022-11-03T01:56:04.975Z,7.90
2022-11-03T01:58:33.791Z,7.90
2022-11-03T02:01:01.291Z,7.80
2022-11-03T02:03:31.400Z,7.80
2022-11-03T02:06:00.941Z,7.70
2022-11-03T02:08:46.345Z,7.70
2022-11-03T02:11:31.932Z,7.60
2022-11-03T02:13:58.469Z,7.60
2022-11-03T02:16:29.801Z,7.60
2022-11-03T02:18:59.811Z,7.50
2022-11-03T02:21:28.275Z,7.50
2022-11-03T02:24:16.969Z,7.50
2022-11-03T02:26:46.479Z,7.50
2022-11-03T02:29:12.990Z,7.50
2022-11-03T02:31:48.285Z,7.50
2022-11-03T02:34:19.479Z,7.50
2022-11-03T02:36:54.555Z,7.50
2022-11-03T02:39:26.312Z,7.50
2022-11-03T02:41:53.705Z,7.40
2022-11-03T02:44:23.018Z,7.40
2022-11-03T02:46:55.662Z,7.40
2022-11-03T02:49:22.341Z,7.40
2022-11-03T02:51:49.008Z,7.40
2022-11-03T02:54:25.983Z,7.40
2022-11-03T02:56:54.082Z,7.40
2022-11-03T02:59:24.089Z,7.40
2022-11-03T03:01:55.268Z,7.40
2022-11-03T03:04:24.391Z,7.30
2022-11-03T03:06:53.319Z,7.30
2022-11-03T03:09:28.189Z,7.30
2022-11-03T03:11:58.283Z,7.30
2022-11-03T03:14:27.064Z,7.30
2022-11-03T03:17:00.531Z,7.30
2022-11-03T03:19:41.508Z,7.30
2022-11-03T03:22:18.625Z,7.30
2022-11-03T03:24:52.105Z,7.30
2022-11-03T03:27:22.406Z,7.30
2022-11-03T03:29:54.241Z,7.20
2022-11-03T03:32:22.023Z,7.20
2022-11-03T03:34:49.666Z,7.20
2022-11-03T03:37:17.334Z,7.20
2022-11-03T03:39:46.493Z,7.20
2022-11-03T03:42:16.121Z,7.20
2022-11-03T03:44:46.196Z,7.20
2022-11-03T03:47:19.839Z,7.20
2022-11-03T03:49:46.448Z,7.20
2022-11-03T03:52:13.148Z,7.20
2022-11-03T03:54:39.751Z,7.20
2022-11-03T03:57:09.390Z,7.20
2022-11-03T03:59:38.169Z,7.20
2022-11-03T04:02:04.796Z,7.10
2022-11-03T04:04:31.410Z,7.10
2022-11-03T04:07:19.172Z,7.10
2022-11-03T04:09:45.675Z,7.10
2022-11-03T04:12:30.963Z,7.10
2022-11-03T04:15:16.287Z,7.10
2022-11-03T04:18:06.049Z,7.10
2022-11-03T04:20:52.210Z,7.20
2022-11-03T04:23:19.140Z,7.10
2022-11-03T04:25:50.487Z,7.10
2022-11-03T04:28:17.380Z,7.20
2022-11-03T04:30:46.073Z,7.10
2022-11-03T04:33:16.928Z,7.10
2022-11-03T04:35:46.532Z,7.10
2022-11-03T04:38:13.069Z,7.10
2022-11-03T04:40:41.685Z,7.10
2022-11-03T04:43:15.497Z,7.00
2022-11-03T04:45:43.219Z,7.00
2022-11-03T04:48:12.504Z,7.00
2022-11-03T04:50:42.875Z,7.00
2022-11-03T04:53:14.141Z,7.00
2022-11-03T04:55:41.193Z,6.90
2022-11-03T04:58:26.380Z,6.90
2022-11-03T05:00:56.530Z,6.90
2022-11-03T05:03:24.951Z,6.90
2022-11-03T05:05:51.990Z,6.90
2022-11-03T05:08:18.928Z,6.90
2022-11-03T05:10:45.924Z,6.90
2022-11-03T05:13:18.752Z,6.90
2022-11-03T05:15:45.868Z,6.90
2022-11-03T05:18:15.492Z,6.90
2022-11-03T05:20:45.244Z,6.90
2022-11-03T05:23:12.131Z,6.90
2022-11-03T05:25:42.564Z,6.90
2022-11-03T05:28:28.082Z,6.90
2022-11-03T05:30:54.922Z,6.80
2022-11-03T05:33:31.947Z,6.80
2022-11-03T05:36:02.161Z,6.80
2022-11-03T05:38:33.024Z,6.80
2022-11-03T05:41:00.057Z,6.80
2022-11-03T05:43:28.036Z,6.80
2022-11-03T05:45:57.557Z,6.80
2022-11-03T05:48:31.585Z,6.90
2022-11-03T05:51:00.176Z,6.80
2022-11-03T05:53:28.711Z,6.80
2022-11-03T05:55:56.059Z,6.70
2022-11-03T05:58:39.330Z,6.70
2022-11-03T06:01:32.251Z,6.70
2022-11-03T06:04:00.355Z,6.70
2022-11-03T06:06:32.194Z,6.80
2022-11-03T06:09:00.069Z,6.70
2022-11-03T06:11:28.467Z,6.80
2022-11-03T06:13:58.025Z,6.80
2022-11-03T06:16:38.763Z,6.70
2022-11-03T06:19:19.957Z,6.70
2022-11-03T06:21:47.618Z,6.70
2022-11-03T06:24:14.210Z,6.70
2022-11-03T06:26:41.547Z,6.70
2022-11-03T06:29:18.172Z,6.70
2022-11-03T06:31:46.036Z,6.70
2022-11-03T06:34:18.523Z,6.70
2022-11-03T06:36:45.051Z,6.70
2022-11-03T06:39:21.077Z,6.70
2022-11-03T06:41:50.027Z,6.80
2022-11-03T06:44:24.533Z,6.80
2022-11-03T06:46:51.821Z,6.80
2022-11-03T06:49:26.616Z,6.70
2022-11-03T06:51:53.142Z,6.60
2022-11-03T06:54:24.654Z,6.60
2022-11-03T06:56:53.891Z,6.70
2022-11-03T06:59:20.505Z,6.70
2022-11-03T07:01:52.162Z,6.70
2022-11-03T07:04:20.180Z,6.60
2022-11-03T07:06:53.750Z,6.60
2022-11-03T07:09:22.287Z,6.60
2022-11-03T07:11:59.476Z,6.70
2022-11-03T07:14:31.192Z,6.80
2022-11-03T07:17:02.279Z,6.80
2022-11-03T07:19:36.361Z,6.80
2022-11-03T07:22:06.322Z,6.90
2022-11-03T07:24:43.727Z,6.80
2022-11-03T07:27:10.221Z,6.80
2022-11-03T07:29:36.904Z,6.80
2022-11-03T07:32:09.432Z,6.80
2022-11-03T07:34:38.471Z,6.70
2022-11-03T07:37:05.082Z,6.60
2022-11-03T07:39:36.974Z,6.50
2022-11-03T07:42:11.668Z,6.60
2022-11-03T07:44:40.863Z,6.60
2022-11-03T07:47:11.288Z,6.60
2022-11-03T07:49:37.798Z,6.50
2022-11-03T07:52:09.046Z,6.50
2022-11-03T07:54:37.747Z,6.50
2022-11-03T07:57:06.157Z,6.60
2022-11-03T07:59:40.651Z,6.60
2022-11-03T08:02:13.286Z,6.60
2022-11-03T08:04:39.981Z,6.70
2022-11-03T08:07:06.546Z,6.80
2022-11-03T08:09:33.070Z,6.90
2022-11-03T08:12:00.374Z,7.10
2022-11-03T08:14:27.763Z,7.20
2022-11-03T08:16:56.725Z,7.30
2022-11-03T08:19:23.287Z,7.40
2022-11-03T08:21:49.837Z,7.50
2022-11-03T08:24:16.363Z,7.50
2022-11-03T08:26:45.091Z,7.60
2022-11-03T08:29:11.659Z,7.60
2022-11-03T08:31:40.561Z,7.60
2022-11-03T08:34:07.096Z,7.60
2022-11-03T08:36:36.108Z,7.50
2022-11-03T08:39:03.011Z,7.60
2022-11-03T08:41:29.700Z,7.60
2022-11-03T08:43:58.626Z,7.70
2022-11-03T08:46:25.174Z,7.80
2022-11-03T08:48:51.964Z,7.90
2022-11-03T08:51:20.933Z,8.00
2022-11-03T08:53:50.545Z,8.10
2022-11-03T08:56:20.408Z,8.30
2022-11-03T08:58:48.792Z,8.30
2022-11-03T09:01:15.445Z,8.50
2022-11-03T09:03:42.251Z,8.60
2022-11-03T09:06:08.824Z,8.80
2022-11-03T09:11:24.987Z,9.00
2022-11-03T09:13:53.983Z,9.20
2022-11-03T09:16:22.937Z,9.30
2022-11-03T09:18:49.472Z,9.40
2022-11-03T09:21:16.019Z,9.50
2022-11-03T09:23:42.609Z,9.70
2022-11-03T09:26:11.626Z,9.80
2022-11-03T09:28:40.559Z,10.00
2022-11-03T09:31:07.176Z,10.10
2022-11-03T09:33:33.725Z,10.30
2022-11-03T09:36:02.716Z,10.40
2022-11-03T09:38:29.300Z,10.50
2022-11-03T09:40:56.221Z,10.60
2022-11-03T09:43:22.841Z,10.60
2022-11-03T09:45:51.569Z,10.60
2022-11-03T09:48:18.111Z,10.70
2022-11-03T09:50:45.313Z,10.70
2022-11-03T09:53:12.123Z,10.80
2022-11-03T09:55:39.302Z,10.80
2022-11-03T09:58:14.655Z,10.80
2022-11-03T10:00:43.705Z,10.90
2022-11-03T10:03:11.431Z,11.00
2022-11-03T10:05:38.633Z,11.00
2022-11-03T10:08:06.903Z,11.10
2022-11-03T10:10:37.709Z,11.20
2022-11-03T10:13:09.123Z,11.20
2022-11-03T10:15:36.024Z,11.30
2022-11-03T10:18:02.610Z,11.30
2022-11-03T10:20:29.235Z,11.40
2022-11-03T10:22:55.805Z,11.40
2022-11-03T10:25:29.914Z,11.50
2022-11-03T10:28:15.397Z,11.50
2022-11-03T10:31:10.174Z,11.50
2022-11-03T10:33:35.832Z,11.60
2022-11-03T10:36:04.088Z,11.60
2022-11-03T10:38:34.362Z,11.60
2022-11-03T10:41:10.357Z,11.70
2022-11-03T10:43:37.505Z,11.70
2022-11-03T10:46:50.124Z,11.80
2022-11-03T10:49:18.465Z,11.80
2022-11-03T10:51:47.345Z,11.80
2022-11-03T10:54:17.389Z,11.90
2022-11-03T10:56:44.953Z,11.90
2022-11-03T10:59:17.521Z,11.90
2022-11-03T11:01:46.889Z,11.90
2022-11-03T11:04:17.380Z,11.80
2022-11-03T11:06:44.410Z,11.90
2022-11-03T11:09:15.299Z,11.90
2022-11-03T11:11:58.840Z,12.00
2022-11-03T11:14:25.396Z,11.90
2022-11-03T11:16:55.582Z,11.90
2022-11-03T11:19:23.011Z,11.90
2022-11-03T11:21:49.508Z,11.90
2022-11-03T11:24:38.120Z,12.00
2022-11-03T11:27:24.684Z,12.00
2022-11-03T11:29:51.241Z,12.10
2022-11-03T11:32:36.632Z,12.10
2022-11-03T11:35:05.380Z,12.10
2022-11-03T11:37:35.125Z,12.10
2022-11-03T11:40:01.767Z,12.10
2022-11-03T11:42:28.279Z,12.00
2022-11-03T11:44:57.564Z,12.10
2022-11-03T11:47:26.881Z,12.10
2022-11-03T11:50:05.740Z,12.10
2022-11-03T11:52:50.677Z,12.20
2022-11-03T11:55:27.499Z,12.10
2022-11-03T11:57:54.539Z,12.20
2022-11-03T12:00:22.361Z,12.20
2022-11-03T12:02:49.037Z,12.20
2022-11-03T12:05:31.958Z,12.20
2022-11-03T12:07:58.548Z,12.20
2022-11-03T12:10:28.532Z,12.10
2022-11-03T12:12:55.622Z,12.10
2022-11-03T12:15:41.484Z,12.10
2022-11-03T12:18:26.568Z,12.10
2022-11-03T12:20:53.132Z,12.10
2022-11-03T12:23:34.599Z,12.20
2022-11-03T12:26:04.098Z,12.20
2022-11-03T12:28:37.592Z,12.20
2022-11-03T12:31:04.263Z,12.20
2022-11-03T12:33:32.962Z,12.10
2022-11-03T12:35:59.607Z,12.10
2022-11-03T12:38:26.203Z,12.10
2022-11-03T12:40:53.647Z,12.10
2022-11-03T12:43:20.351Z,12.20
2022-11-03T12:45:46.966Z,12.20
2022-11-03T12:48:15.983Z,12.20
2022-11-03T12:50:42.511Z,12.20
2022-11-03T12:53:11.218Z,12.30
2022-11-03T12:55:40.661Z,12.30
2022-11-03T12:58:10.353Z,12.30
2022-11-03T13:00:39.526Z,12.30
2022-11-03T13:03:06.558Z,12.30
2022-11-03T13:05:33.321Z,12.30
2022-11-03T13:07:59.897Z,12.30
2022-11-03T13:10:26.417Z,12.30
2022-11-03T13:12:52.990Z,12.30
2022-11-03T13:15:19.513Z,12.30
2022-11-03T13:18:11.572Z,12.40
2022-11-03T13:20:32.788Z,12.40
2022-11-03T13:22:59.433Z,12.40
2022-11-03T13:25:26.395Z,12.50
2022-11-03T13:27:55.975Z,12.50
2022-11-03T13:30:28.527Z,12.50
2022-11-03T13:32:57.609Z,12.50
2022-11-03T13:35:26.307Z,12.60
2022-11-03T13:37:55.122Z,12.60
2022-11-03T13:43:11.727Z,12.60
2022-11-03T13:45:38.620Z,12.60
2022-11-03T13:50:53.686Z,12.60
2022-11-03T13:56:08.782Z,12.60
2022-11-03T14:01:23.935Z,12.60
2022-11-03T14:06:39.985Z,12.60
2022-11-03T14:09:06.518Z,12.60
2022-11-03T14:11:51.740Z,12.60
2022-11-03T14:14:20.630Z,12.60
2022-11-03T14:16:47.230Z,12.50
2022-11-03T14:19:13.898Z,12.60
2022-11-03T14:21:42.875Z,12.60
2022-11-03T14:24:09.524Z,12.60
2022-11-03T14:26:42.206Z,12.60
2022-11-03T14:29:09.133Z,12.60
2022-11-03T14:31:35.651Z,12.50
2022-11-03T14:34:02.179Z,12.50
2022-11-03T14:36:31.223Z,12.50
2022-11-03T14:38:57.809Z,12.40
2022-11-03T14:41:43.131Z,12.40
2022-11-03T14:44:09.732Z,12.40
2022-11-03T14:46:36.252Z,12.30
2022-11-03T14:49:03.176Z,12.30
2022-11-03T14:51:30.225Z,12.30
2022-11-03T14:53:59.298Z,12.30
2022-11-03T14:56:25.819Z,12.30
2022-11-03T14:58:54.860Z,12.20
2022-11-03T15:01:21.535Z,12.20
2022-11-03T15:03:48.285Z,12.20
2022-11-03T15:06:14.798Z,12.20
2022-11-03T15:08:41.388Z,12.20
2022-11-03T15:11:08.464Z,12.20
2022-11-03T15:13:41.535Z,12.10
2022-11-03T15:16:12.453Z,12.10
2022-11-03T15:18:41.558Z,12.10
2022-11-03T15:21:08.059Z,12.10
2022-11-03T15:26:21.125Z,12.00
2022-11-03T15:28:47.645Z,12.00
2022-11-03T15:31:14.238Z,12.10
2022-11-03T15:33:43.200Z,12.10
2022-11-03T15:36:09.905Z,12.10
2022-11-03T15:38:36.440Z,12.10
2022-11-03T15:41:20.089Z,12.10
2022-11-03T15:43:48.014Z,12.10
2022-11-03T15:46:15.303Z,12.10
2022-11-03T15:48:44.325Z,12.10
2022-11-03T15:51:12.080Z,12.00
2022-11-03T15:53:38.857Z,12.00
2022-11-03T15:56:10.389Z,11.90
2022-11-03T15:58:37.458Z,11.90
2022-11-03T16:01:04.994Z,11.90
2022-11-03T16:03:32.155Z,11.90
2022-11-03T16:05:59.241Z,11.90
2022-11-03T16:08:25.890Z,12.00
2022-11-03T16:10:57.538Z,11.90
2022-11-03T16:13:26.862Z,12.00
2022-11-03T16:15:54.468Z,12.00
2022-11-03T16:18:23.823Z,12.00
2022-11-03T16:20:50.426Z,12.00
2022-11-03T16:23:17.017Z,12.10
2022-11-03T16:25:43.559Z,12.00
2022-11-03T16:28:10.462Z,12.10
2022-11-03T16:30:38.448Z,12.00
2022-11-03T16:33:07.600Z,12.00
2022-11-03T16:35:34.232Z,12.00
2022-11-03T16:38:00.997Z,11.90
2022-11-03T16:40:27.690Z,11.80
2022-11-03T16:42:56.382Z,11.80
2022-11-03T16:45:26.530Z,11.70
2022-11-03T16:47:53.470Z,11.70
2022-11-03T16:50:20.109Z,11.80
2022-11-03T16:52:47.212Z,11.80
2022-11-03T16:55:14.890Z,11.80
2022-11-03T16:57:44.318Z,11.80
2022-11-03T17:00:12.644Z,11.80
2022-11-03T17:02:39.379Z,11.80
2022-11-03T17:05:06.179Z,11.80
2022-11-03T17:07:34.949Z,11.80
2022-11-03T17:10:01.551Z,11.80
2022-11-03T17:12:28.113Z,11.80
2022-11-03T17:14:56.749Z,11.80
2022-11-03T17:17:23.943Z,11.80
2022-11-03T17:19:50.724Z,11.80
2022-11-03T17:22:17.289Z,11.70
2022-11-03T17:24:46.332Z,11.60
2022-11-03T17:27:14.893Z,11.60
2022-11-03T17:29:47.764Z,11.60
2022-11-03T17:32:16.190Z,11.60
2022-11-03T17:34:45.344Z,11.60
2022-11-03T17:37:11.953Z,11.50
2022-11-03T17:39:41.187Z,11.50
2022-11-03T17:42:15.997Z,11.50
2022-11-03T17:44:47.352Z,11.50
2022-11-03T17:47:14.986Z,11.50
2022-11-03T17:49:41.927Z,11.50
2022-11-03T17:52:30.333Z,11.60
2022-11-03T17:55:02.267Z,11.50
2022-11-03T17:57:29.878Z,11.50
2022-11-03T17:59:57.968Z,11.50
2022-11-03T18:02:28.478Z,11.50
2022-11-03T18:05:00.959Z,11.50
2022-11-03T18:07:28.518Z,11.50
2022-11-03T18:09:56.071Z,11.50
2022-11-03T18:12:44.465Z,11.40
2022-11-03T18:15:14.059Z,11.40
2022-11-03T18:17:40.606Z,11.40
2022-11-03T18:20:15.293Z,11.40
2022-11-03T18:22:41.805Z,11.40
2022-11-03T18:25:20.952Z,11.40
2022-11-03T18:27:47.888Z,11.40
2022-11-03T18:30:19.071Z,11.40
2022-11-03T18:32:45.829Z,11.40
2022-11-03T18:35:20.589Z,11.40
2022-11-03T18:37:47.252Z,11.40
2022-11-03T18:40:14.830Z,11.50
2022-11-03T18:42:41.712Z,11.50
2022-11-03T18:45:12.172Z,11.50
2022-11-03T18:47:40.837Z,11.50
2022-11-03T18:50:08.031Z,11.50
2022-11-03T18:52:38.451Z,11.50
2022-11-03T18:55:05.487Z,11.40
2022-11-03T18:57:32.001Z,11.40
2022-11-03T19:00:02.017Z,11.50
2022-11-03T19:02:28.665Z,11.50
2022-11-03T19:04:55.210Z,11.50
2022-11-03T19:07:29.704Z,11.50
2022-11-03T19:09:56.288Z,11.60
2022-11-03T19:12:23.090Z,11.60
2022-11-03T19:14:49.817Z,11.60
2022-11-03T19:17:23.302Z,11.60
2022-11-03T19:19:50.907Z,11.60
2022-11-03T19:22:18.507Z,11.60
2022-11-03T19:24:45.433Z,11.60
2022-11-03T19:27:15.058Z,11.60
2022-11-03T19:29:42.046Z,11.70
2022-11-03T19:32:14.607Z,11.70
2022-11-03T19:34:46.094Z,11.70
2022-11-03T19:37:12.649Z,11.70
2022-11-03T19:39:40.546Z,11.70
2022-11-03T19:42:31.793Z,11.70
2022-11-03T19:44:59.407Z,11.80
2022-11-03T19:47:29.846Z,11.80
2022-11-03T19:49:59.734Z,11.70
2022-11-03T19:52:27.789Z,11.80
2022-11-03T19:54:54.543Z,11.70
2022-11-03T19:57:21.113Z,11.80
2022-11-03T19:59:47.753Z,11.80
2022-11-03T20:02:16.977Z,11.80
2022-11-03T20:04:47.277Z,11.80
2022-11-03T20:07:14.963Z,11.90
2022-11-03T20:09:41.562Z,11.90
2022-11-03T20:12:09.973Z,11.90
2022-11-03T20:14:38.887Z,11.90
2022-11-03T20:17:16.607Z,11.90
2022-11-03T20:19:43.631Z,11.90
2022-11-03T20:22:17.294Z,11.90
2022-11-03T20:24:45.053Z,11.90
2022-11-03T20:27:11.890Z,11.90
2022-11-03T20:29:39.171Z,12.00
2022-11-03T20:32:05.805Z,12.00
2022-11-03T20:34:32.372Z,11.90
2022-11-03T20:37:04.713Z,11.90
2022-11-03T20:39:32.396Z,12.00
2022-11-03T20:41:58.940Z,12.00
2022-11-03T20:44:27.719Z,11.90
2022-11-03T20:46:54.228Z,11.90
2022-11-03T20:49:21.643Z,12.00
2022-11-03T20:51:50.854Z,12.00
2022-11-03T20:54:18.610Z,11.90
2022-11-03T20:56:45.844Z,11.90
2022-11-03T21:01:45.680Z,11.80
2022-11-03T21:04:16.781Z,11.80
2022-11-03T21:06:43.721Z,11.80
2022-11-03T21:09:14.352Z,11.80
2022-11-03T21:11:43.193Z,11.80
2022-11-03T21:14:12.538Z,11.80
2022-11-03T21:16:57.802Z,11.70
2022-11-03T21:19:58.541Z,11.80
2022-11-03T21:22:54.707Z,11.70
2022-11-03T21:25:22.207Z,11.80
2022-11-03T21:27:51.448Z,11.90
2022-11-03T21:30:18.351Z,11.90
2022-11-03T21:32:45.195Z,11.90
2022-11-03T21:35:15.276Z,12.00
2022-11-03T21:37:41.929Z,12.00
2022-11-03T21:40:08.886Z,12.00
2022-11-03T21:42:54.252Z,12.10
2022-11-03T21:45:23.319Z,12.10
2022-11-03T21:48:13.126Z,12.10
2022-11-03T21:50:40.342Z,12.10
2022-11-03T21:53:07.424Z,12.10
2022-11-03T21:55:34.407Z,12.10
2022-11-03T21:58:04.255Z,12.10
2022-11-03T22:00:31.220Z,12.10
2022-11-03T22:02:58.765Z,12.10
2022-11-03T22:05:26.380Z,12.20
2022-11-03T22:07:52.981Z,12.20
2022-11-03T22:10:20.256Z,12.20
2022-11-03T22:12:46.801Z,12.20
2022-11-03T22:15:32.088Z,12.20
2022-11-03T22:18:02.308Z,12.20
2022-11-03T22:20:47.769Z,12.20
2022-11-03T22:23:34.211Z,12.20
2022-11-03T22:26:39.160Z,12.20
2022-11-03T22:29:24.222Z,12.20
2022-11-03T22:31:50.768Z,12.20
2022-11-03T22:34:36.117Z,12.20
2022-11-03T22:37:02.830Z,12.20
2022-11-03T22:39:48.112Z,12.30
2022-11-03T22:42:35.960Z,12.30
2022-11-03T22:45:21.110Z,12.30
2022-11-03T22:47:47.643Z,12.30
2022-11-03T22:50:16.567Z,12.30
2022-11-03T22:52:43.167Z,12.30
2022-11-03T22:55:12.258Z,12.30
2022-11-03T22:57:38.766Z,12.30
2022-11-03T23:00:05.670Z,12.30
2022-11-03T23:02:34.477Z,12.30
2022-11-03T23:05:01.018Z,12.30
2022-11-03T23:07:31.726Z,12.20
2022-11-03T23:10:04.575Z,12.30
2022-11-03T23:12:33.547Z,12.30
2022-11-03T23:15:20.999Z,12.30
2022-11-03T23:18:07.321Z,12.20
2022-11-03T23:20:55.268Z,12.30
2022-11-03T23:23:40.712Z,12.30
2022-11-03T23:26:08.032Z,12.20
2022-11-03T23:28:34.682Z,12.20
2022-11-03T23:31:01.233Z,12.20
2022-11-03T23:33:27.850Z,12.20
2022-11-03T23:35:54.390Z,12.20
2022-11-03T23:38:20.953Z,12.20
2022-11-03T23:40:49.616Z,12.20
2022-11-03T23:43:16.144Z,12.20
2022-11-03T23:46:01.437Z,12.20
2022-11-03T23:48:46.023Z,12.20
2022-11-03T23:51:22.112Z,12.20
2022-11-03T23:53:49.016Z,12.20
2022-11-03T23:56:35.036Z,12.20
2022-11-03T23:59:01.723Z,12.20
